Time;durP1;ratioP1;P1;durP2;ratioP2;P2;SDS_P1;SDS_P2;PMS_P1;PMS_P2;Temp;Humidity;BMP_temperature;BMP_pressure;BME280_temperature;BME280_humidity;BME280_pressure;Samples;Min_cycle;Max_cycle;Signal;HPM_P1;HPM_P2
2023/03/23 00:00:55;;;;;;;3.63;1.77;;;10.10;99.90;;;;;;5003326;28;20061;-76
2023/03/23 00:03:21;;;;;;;2.75;1.08;;;10.10;99.90;;;;;;5019785;28;20577;-76
2023/03/23 00:05:50;;;;;;;3.53;1.42;;;10.10;99.90;;;;;;5005081;28;20054;-76
2023/03/23 00:08:21;;;;;;;3.88;1.50;;;10.10;99.90;;;;;;4987659;28;20611;-76
2023/03/23 00:10:56;;;;;;;3.30;1.60;;;10.10;99.90;;;;;;4987814;28;20434;-76
2023/03/23 00:13:25;;;;;;;4.10;1.48;;;10.10;99.90;;;;;;4987306;28;20054;-76
2023/03/23 00:15:52;;;;;;;4.18;2.20;;;10.10;99.90;;;;;;5004183;28;20108;-76
2023/03/23 00:18:22;;;;;;;5.05;2.00;;;10.10;99.90;;;;;;5004627;28;20049;-76
2023/03/23 00:20:56;;;;;;;4.28;2.03;;;10.10;99.90;;;;;;4987555;28;20046;-76
2023/03/23 00:23:24;;;;;;;5.72;2.30;;;10.10;99.90;;;;;;4987105;28;20479;-76
2023/03/23 00:25:57;;;;;;;7.65;2.90;;;10.10;99.90;;;;;;4987208;28;20057;-76
2023/03/23 00:28:26;;;;;;;8.20;2.60;;;10.20;99.90;;;;;;5004842;28;20046;-75
2023/03/23 00:30:57;;;;;;;8.43;3.10;;;10.20;99.90;;;;;;5003851;28;20920;-76
2023/03/23 00:33:37;;;;;;;8.85;3.65;;;10.20;99.90;;;;;;5004501;28;20048;-76
2023/03/23 00:36:04;;;;;;;8.85;3.28;;;10.20;99.90;;;;;;5004759;28;20057;-76
2023/03/23 00:38:30;;;;;;;9.02;4.75;;;10.20;99.90;;;;;;5004884;28;20049;-77
2023/03/23 00:40:57;;;;;;;9.55;3.88;;;10.20;99.90;;;;;;5005372;28;20093;-76
2023/03/23 00:43:28;;;;;;;9.38;3.88;;;10.20;99.90;;;;;;4987211;28;20053;-76
2023/03/23 00:45:55;;;;;;;12.73;4.88;;;10.20;99.90;;;;;;5004346;28;20038;-76
2023/03/23 00:48:24;;;;;;;9.35;3.72;;;10.20;99.90;;;;;;5004860;28;20508;-76
2023/03/23 00:50:51;;;;;;;10.65;3.90;;;10.20;99.90;;;;;;5004083;28;20046;-76
2023/03/23 00:53:18;;;;;;;6.55;3.05;;;10.20;99.90;;;;;;5004705;28;20153;-76
2023/03/23 00:55:45;;;;;;;8.10;3.70;;;10.20;99.90;;;;;;5004927;28;20054;-76
2023/03/23 00:58:12;;;;;;;9.30;3.20;;;10.20;99.90;;;;;;5004126;28;20053;-76
2023/03/23 01:00:38;;;;;;;8.13;3.28;;;10.10;99.90;;;;;;4986067;28;20049;-75
2023/03/23 01:03:04;;;;;;;9.52;2.60;;;10.10;99.90;;;;;;5004368;28;20053;-76
2023/03/23 01:05:37;;;;;;;5.72;2.30;;;10.10;99.90;;;;;;5004420;28;20521;-77
2023/03/23 01:08:04;;;;;;;7.85;3.33;;;10.10;99.90;;;;;;5004486;28;20088;-76
2023/03/23 01:10:32;;;;;;;7.00;2.92;;;10.10;99.90;;;;;;5004265;28;20108;-77
2023/03/23 01:13:01;;;;;;;9.07;3.45;;;10.10;99.90;;;;;;5004919;28;20054;-76
2023/03/23 01:15:28;;;;;;;7.80;3.00;;;10.10;99.90;;;;;;5006822;28;20168;-76
2023/03/23 01:17:54;;;;;;;5.80;2.88;;;10.10;99.90;;;;;;5008271;28;20038;-76
2023/03/23 01:20:20;;;;;;;8.25;3.55;;;10.10;99.90;;;;;;5007647;28;20056;-76
2023/03/23 01:22:45;;;;;;;6.25;3.70;;;10.20;99.90;;;;;;5008264;28;20491;-76
2023/03/23 01:25:13;;;;;;;8.32;3.80;;;10.20;99.90;;;;;;5008307;28;20041;-76
2023/03/23 01:27:39;;;;;;;5.78;3.30;;;10.20;99.90;;;;;;5007978;28;20067;-76
2023/03/23 01:30:07;;;;;;;7.07;2.97;;;10.20;99.90;;;;;;5007617;28;20599;-76
2023/03/23 01:32:33;;;;;;;4.75;2.80;;;10.20;99.90;;;;;;5008240;28;20081;-76
2023/03/23 01:34:58;;;;;;;7.20;2.90;;;10.20;99.90;;;;;;5008247;28;20486;-76
2023/03/23 01:37:26;;;;;;;8.00;3.05;;;10.30;99.90;;;;;;5007533;28;20099;-76
2023/03/23 01:39:53;;;;;;;6.78;2.60;;;10.30;99.90;;;;;;5007922;28;20049;-76
2023/03/23 01:42:22;;;;;;;5.90;2.72;;;10.30;99.90;;;;;;4989980;28;20545;-76
2023/03/23 01:44:48;;;;;;;7.47;2.88;;;10.30;99.90;;;;;;5007632;28;20483;-76
2023/03/23 01:47:14;;;;;;;8.13;3.13;;;10.30;99.90;;;;;;5006763;28;20050;-76
2023/03/23 01:49:46;;;;;;;6.22;2.50;;;10.30;99.90;;;;;;4987888;28;20046;-76
2023/03/23 01:52:21;;;;;;;10.52;3.50;;;10.30;99.90;;;;;;5007229;28;20033;-76
2023/03/23 01:54:48;;;;;;;6.88;2.70;;;10.30;99.90;;;;;;5007630;28;20046;-76
2023/03/23 01:57:19;;;;;;;8.02;2.85;;;10.30;99.90;;;;;;5007060;28;20042;-76
2023/03/23 01:59:49;;;;;;;4.50;2.42;;;10.30;99.90;;;;;;5007409;28;20042;-76
2023/03/23 02:02:16;;;;;;;6.88;2.60;;;10.30;99.90;;;;;;4988832;28;20105;-76
2023/03/23 02:04:42;;;;;;;4.30;2.22;;;10.30;99.90;;;;;;5007657;28;20046;-76
2023/03/23 02:07:10;;;;;;;5.65;2.17;;;10.40;99.90;;;;;;4989281;28;20077;-77
2023/03/23 02:09:36;;;;;;;4.15;1.77;;;10.40;99.90;;;;;;5007147;28;20042;-76
2023/03/23 02:12:02;;;;;;;4.22;2.13;;;10.30;99.90;;;;;;5007314;28;20050;-76
2023/03/23 02:14:29;;;;;;;4.63;2.40;;;10.40;99.90;;;;;;5007727;28;20045;-76
2023/03/23 02:17:13;;;;;;;4.07;2.05;;;10.30;99.90;;;;;;4998012;28;20395;-76
2023/03/23 02:19:44;;;;;;;5.72;2.20;;;10.40;99.90;;;;;;5007294;28;20081;-76
2023/03/23 02:22:55;;;;;;;4.50;2.08;;;10.30;99.90;;;;;;5007033;28;20056;-76
2023/03/23 02:25:22;;;;;;;6.90;2.15;;;10.40;99.90;;;;;;4987366;28;20498;-76
2023/03/23 02:28:06;;;;;;;4.25;2.22;;;10.40;99.90;;;;;;5003573;28;20092;-76
2023/03/23 02:30:56;;;;;;;4.75;2.45;;;10.40;99.90;;;;;;5006210;28;20077;-76
2023/03/23 02:33:56;;;;;;;3.78;1.40;;;10.40;99.90;;;;;;5006294;28;20050;-76
2023/03/23 02:36:27;;;;;;;3.03;1.65;;;10.40;99.90;;;;;;4984423;28;20054;-77
2023/03/23 02:39:25;;;;;;;3.45;1.40;;;10.40;99.90;;;;;;5006662;28;20054;-77
2023/03/23 02:42:06;;;;;;;2.25;1.30;;;10.40;99.90;;;;;;4990160;28;20054;-76
2023/03/23 02:44:35;;;;;;;7.72;2.13;;;10.40;99.90;;;;;;5006775;28;20054;-78
2023/03/23 02:47:05;;;;;;;3.30;1.80;;;10.50;99.90;;;;;;5005196;28;20046;-77
2023/03/23 02:49:35;;;;;;;2.20;1.27;;;10.50;99.90;;;;;;5006303;28;20091;-78
2023/03/23 02:52:04;;;;;;;2.97;1.17;;;10.40;99.90;;;;;;5006219;28;20128;-78
2023/03/23 02:54:30;;;;;;;2.70;1.05;;;10.40;99.90;;;;;;4988371;28;20128;-78
2023/03/23 02:56:57;;;;;;;2.13;1.10;;;10.40;99.90;;;;;;5007145;28;20121;-77
2023/03/23 02:59:22;;;;;;;2.80;1.23;;;10.40;99.90;;;;;;5006256;28;20065;-76
2023/03/23 03:02:08;;;;;;;2.38;1.35;;;10.40;99.90;;;;;;5005421;28;20053;-77
2023/03/23 03:04:36;;;;;;;3.13;1.50;;;10.40;99.90;;;;;;4995421;28;20469;-76
2023/03/23 03:07:16;;;;;;;1.73;1.33;;;10.40;99.90;;;;;;5005764;28;20057;-77
2023/03/23 03:09:50;;;;;;;3.83;1.30;;;10.40;99.90;;;;;;5006269;28;20078;-76
2023/03/23 03:12:38;;;;;;;6.93;2.00;;;10.40;99.90;;;;;;5005961;28;20050;-77
2023/03/23 03:15:27;;;;;;;2.40;1.23;;;10.40;99.90;;;;;;5020185;28;20053;-77
2023/03/23 03:18:03;;;;;;;2.45;1.40;;;10.40;99.90;;;;;;5006269;28;20489;-77
2023/03/23 03:20:30;;;;;;;1.60;1.25;;;10.50;99.90;;;;;;5021319;28;20153;-77
2023/03/23 03:22:58;;;;;;;3.90;1.23;;;10.40;99.90;;;;;;5021612;28;20145;-76
2023/03/23 03:25:27;;;;;;;3.28;1.00;;;10.40;99.90;;;;;;5005624;28;20050;-76
2023/03/23 03:27:53;;;;;;;1.77;1.27;;;10.40;99.90;;;;;;5005765;28;20095;-76
2023/03/23 03:30:24;;;;;;;2.40;1.15;;;10.40;99.90;;;;;;5004761;28;20675;-76
2023/03/23 03:32:53;;;;;;;2.17;0.50;;;10.40;99.90;;;;;;5006203;28;20042;-76
2023/03/23 03:35:23;;;;;;;4.10;1.02;;;10.40;99.90;;;;;;5005205;28;20042;-76
2023/03/23 03:37:50;;;;;;;1.95;0.90;;;10.40;99.90;;;;;;4987616;28;20482;-77
2023/03/23 03:40:19;;;;;;;3.17;1.15;;;10.30;99.90;;;;;;5005393;28;20095;-77
2023/03/23 03:42:46;;;;;;;2.40;1.52;;;10.40;99.90;;;;;;4988416;28;20088;-77
2023/03/23 03:45:17;;;;;;;4.07;1.42;;;10.30;99.90;;;;;;5004695;28;20033;-77
2023/03/23 03:47:43;;;;;;;3.28;1.42;;;10.30;99.90;;;;;;5005691;28;20074;-76
2023/03/23 03:50:09;;;;;;;4.00;1.20;;;10.30;99.90;;;;;;5005196;28;20046;-77
2023/03/23 03:52:36;;;;;;;2.53;1.20;;;10.20;99.90;;;;;;5005514;28;20077;-77
2023/03/23 03:55:02;;;;;;;2.67;1.17;;;10.20;99.90;;;;;;5004847;28;20042;-77
2023/03/23 03:57:27;;;;;;;2.65;1.20;;;10.20;99.90;;;;;;5006218;28;20088;-77
2023/03/23 03:59:53;;;;;;;1.02;0.70;;;10.20;99.90;;;;;;5019785;28;20041;-77
2023/03/23 04:02:19;;;;;;;1.73;1.08;;;10.20;99.90;;;;;;5004727;28;20077;-77
2023/03/23 04:04:49;;;;;;;4.45;1.15;;;10.10;99.90;;;;;;5005429;28;20041;-76
2023/03/23 04:07:16;;;;;;;1.10;0.70;;;10.10;99.90;;;;;;5005066;28;20045;-76
2023/03/23 04:09:43;;;;;;;0.73;0.68;;;10.10;99.90;;;;;;5004668;28;20053;-77
2023/03/23 04:12:08;;;;;;;1.98;1.10;;;10.10;99.90;;;;;;5005204;28;20048;-76
2023/03/23 04:14:34;;;;;;;1.85;0.93;;;10.10;99.90;;;;;;4987755;28;20045;-76
2023/03/23 04:17:00;;;;;;;5.15;1.10;;;10.10;99.90;;;;;;4986321;28;20077;-77
2023/03/23 04:19:28;;;;;;;2.47;0.75;;;10.10;99.90;;;;;;5005392;28;20130;-76
2023/03/23 04:21:54;;;;;;;3.25;0.82;;;10.10;99.90;;;;;;5020451;28;20068;-76
2023/03/23 04:24:23;;;;;;;1.02;0.40;;;10.10;99.90;;;;;;5019928;28;20500;-77
2023/03/23 04:26:51;;;;;;;4.28;0.98;;;10.10;99.90;;;;;;4987701;28;20042;-76
2023/03/23 04:29:17;;;;;;;4.10;0.70;;;10.00;99.90;;;;;;5004981;28;20494;-76
2023/03/23 04:31:45;;;;;;;4.70;0.68;;;10.00;99.90;;;;;;5004047;28;20038;-76
2023/03/23 04:34:13;;;;;;;0.98;0.60;;;10.00;99.90;;;;;;5004886;28;20058;-76
2023/03/23 04:36:40;;;;;;;3.13;0.80;;;10.00;99.90;;;;;;5004835;28;20042;-76
2023/03/23 04:39:09;;;;;;;3.00;0.60;;;10.00;99.90;;;;;;5004600;28;20042;-77
2023/03/23 04:41:38;;;;;;;6.15;1.02;;;10.00;99.90;;;;;;5020110;28;20057;-77
2023/03/23 04:44:04;;;;;;;2.08;0.80;;;10.00;99.90;;;;;;5004888;28;20046;-76
2023/03/23 04:46:30;;;;;;;1.20;0.60;;;10.00;99.90;;;;;;5000549;28;20039;-77
2023/03/23 04:48:58;;;;;;;1.30;0.50;;;10.00;99.90;;;;;;4988700;28;20506;-76
2023/03/23 04:51:25;;;;;;;2.80;0.60;;;10.00;99.90;;;;;;4990665;28;20121;-76
2023/03/23 04:53:52;;;;;;;2.25;0.57;;;10.00;99.90;;;;;;5023832;28;20050;-77
2023/03/23 04:56:18;;;;;;;2.97;0.50;;;9.90;99.90;;;;;;5008113;28;20037;-77
2023/03/23 04:58:44;;;;;;;1.08;0.60;;;9.90;99.90;;;;;;5008942;28;20050;-77
2023/03/23 05:01:13;;;;;;;3.13;0.50;;;9.90;99.90;;;;;;5007140;28;20129;-76
2023/03/23 05:03:39;;;;;;;1.17;1.10;;;9.90;99.90;;;;;;4991183;28;20125;-77
2023/03/23 05:06:06;;;;;;;3.95;0.77;;;9.90;99.90;;;;;;4991185;28;20081;-77
2023/03/23 05:08:32;;;;;;;2.13;1.42;;;9.90;99.90;;;;;;5008575;28;20045;-77
2023/03/23 05:10:59;;;;;;;2.03;0.63;;;9.90;99.90;;;;;;4990557;28;20056;-76
2023/03/23 05:13:26;;;;;;;3.70;1.10;;;9.90;99.90;;;;;;5008861;28;20117;-77
2023/03/23 05:15:52;;;;;;;1.35;0.73;;;9.90;99.90;;;;;;5007462;28;20041;-77
2023/03/23 05:18:20;;;;;;;4.28;0.55;;;9.80;99.90;;;;;;4990861;28;20148;-76
2023/03/23 05:20:46;;;;;;;1.60;0.50;;;9.80;99.90;;;;;;5008214;28;20044;-77
2023/03/23 05:23:12;;;;;;;5.15;1.35;;;9.80;99.90;;;;;;4974491;28;20042;-76
2023/03/23 05:25:40;;;;;;;3.15;1.15;;;9.80;99.90;;;;;;5008177;28;20045;-77
2023/03/23 05:28:11;;;;;;;2.00;0.38;;;9.70;99.90;;;;;;4990372;28;20053;-77
2023/03/23 05:30:38;;;;;;;3.42;0.85;;;9.80;99.90;;;;;;5007257;28;20042;-77
2023/03/23 05:33:04;;;;;;;8.35;0.90;;;9.70;99.90;;;;;;5008331;28;20080;-77
2023/03/23 05:35:30;;;;;;;3.40;0.80;;;9.70;99.90;;;;;;5008198;28;20042;-78
2023/03/23 05:37:57;;;;;;;1.10;0.77;;;9.80;99.90;;;;;;4974898;28;20517;-76
2023/03/23 05:40:25;;;;;;;3.85;0.75;;;9.80;99.90;;;;;;4989742;28;20045;-77
2023/03/23 05:42:51;;;;;;;3.50;0.68;;;9.80;99.90;;;;;;4986340;28;20490;-77
2023/03/23 05:45:17;;;;;;;1.67;0.63;;;9.80;99.90;;;;;;4972600;28;20042;-78
2023/03/23 05:47:43;;;;;;;2.97;0.70;;;9.80;99.90;;;;;;5007914;28;20077;-76
2023/03/23 05:50:10;;;;;;;3.35;0.70;;;9.80;99.90;;;;;;5007205;28;20107;-76
2023/03/23 05:52:36;;;;;;;2.70;0.52;;;9.80;99.90;;;;;;4988315;28;20046;-76
2023/03/23 05:55:03;;;;;;;4.10;0.73;;;9.80;99.90;;;;;;5005754;28;20046;-76
2023/03/23 05:57:29;;;;;;;1.40;0.60;;;9.80;99.90;;;;;;5007296;28;20045;-76
2023/03/23 05:59:55;;;;;;;1.45;0.30;;;9.70;99.90;;;;;;4969082;28;20072;-76
2023/03/23 06:02:23;;;;;;;0.30;0.20;;;9.70;99.90;;;;;;5006681;28;20522;-75
2023/03/23 06:04:48;;;;;;;0.35;0.25;;;9.60;99.90;;;;;;5006020;28;20041;-76
2023/03/23 06:07:14;;;;;;;1.58;0.40;;;9.50;99.90;;;;;;5022518;28;20455;-76
2023/03/23 06:09:41;;;;;;;3.03;0.50;;;9.50;99.90;;;;;;5007139;28;20096;-77
2023/03/23 06:12:07;;;;;;;2.15;0.43;;;9.50;99.90;;;;;;5007816;28;20068;-77
2023/03/23 06:14:33;;;;;;;5.15;0.47;;;9.40;99.90;;;;;;5009722;28;20104;-77
2023/03/23 06:16:59;;;;;;;1.30;0.30;;;9.40;99.90;;;;;;5007866;28;20153;-76
2023/03/23 06:19:26;;;;;;;2.15;0.40;;;9.30;99.90;;;;;;4995830;28;20043;-76
2023/03/23 06:21:54;;;;;;;0.32;0.28;;;9.30;99.90;;;;;;4989036;28;20140;-77
2023/03/23 06:24:19;;;;;;;0.82;0.30;;;9.20;99.90;;;;;;5006812;28;20049;-77
2023/03/23 06:26:45;;;;;;;3.72;1.08;;;9.20;99.90;;;;;;4973336;28;20651;-77
2023/03/23 06:29:11;;;;;;;0.68;0.68;;;9.20;99.90;;;;;;5006400;28;20606;-77
2023/03/23 06:31:54;;;;;;;1.25;0.38;;;9.20;99.90;;;;;;4988173;28;20485;-76
2023/03/23 06:34:20;;;;;;;1.30;0.40;;;9.20;99.90;;;;;;5012900;28;20061;-77
2023/03/23 06:36:46;;;;;;;1.02;0.50;;;9.20;99.90;;;;;;5005180;28;20435;-79
2023/03/23 06:39:13;;;;;;;1.83;0.47;;;9.20;99.90;;;;;;5018862;28;20046;-77
2023/03/23 06:41:39;;;;;;;1.98;0.45;;;9.20;99.90;;;;;;4985562;28;20046;-75
2023/03/23 06:44:06;;;;;;;2.95;0.80;;;9.20;99.90;;;;;;4988375;28;20144;-77
2023/03/23 06:46:31;;;;;;;5.50;0.82;;;9.20;99.90;;;;;;4987401;28;20050;-77
2023/03/23 06:48:57;;;;;;;1.33;0.40;;;9.20;99.90;;;;;;5005712;28;20057;-76
2023/03/23 06:51:23;;;;;;;6.75;1.15;;;9.20;99.90;;;;;;5019953;28;20397;-76
2023/03/23 06:53:49;;;;;;;3.92;0.80;;;9.20;99.90;;;;;;4991091;28;20119;-76
2023/03/23 06:56:15;;;;;;;4.95;0.77;;;9.20;99.90;;;;;;4992915;28;20124;-75
2023/03/23 06:58:41;;;;;;;3.58;1.10;;;9.30;99.90;;;;;;5020510;28;20046;-75
2023/03/23 07:01:09;;;;;;;5.57;0.52;;;9.30;99.90;;;;;;4986238;28;20604;-75
2023/03/23 07:03:35;;;;;;;4.65;1.60;;;9.30;99.90;;;;;;5004868;28;20042;-75
2023/03/23 07:06:01;;;;;;;10.35;1.48;;;9.40;99.90;;;;;;5004595;28;20041;-75
2023/03/23 07:08:27;;;;;;;8.82;1.30;;;9.50;99.90;;;;;;4988663;28;20041;-75
2023/03/23 07:10:53;;;;;;;5.72;0.88;;;9.50;99.90;;;;;;4987736;28;20049;-75
2023/03/23 07:13:20;;;;;;;3.17;0.65;;;9.50;99.90;;;;;;4986507;28;20149;-75
2023/03/23 07:15:46;;;;;;;4.95;0.77;;;9.50;99.90;;;;;;5005181;28;20096;-75
2023/03/23 07:18:12;;;;;;;6.93;1.05;;;9.60;99.90;;;;;;5019694;28;20053;-77
2023/03/23 07:20:37;;;;;;;9.90;1.10;;;9.60;99.90;;;;;;5004764;28;20052;-75
2023/03/23 07:23:05;;;;;;;3.45;1.05;;;9.60;99.90;;;;;;4988113;28;20045;-77
2023/03/23 07:25:32;;;;;;;4.88;0.95;;;9.70;99.90;;;;;;4988163;28;20058;-77
2023/03/23 07:28:02;;;;;;;2.63;0.50;;;9.70;99.90;;;;;;5005894;28;20073;-76
2023/03/23 07:30:29;;;;;;;0.90;0.65;;;9.80;99.90;;;;;;5002296;28;20084;-76
2023/03/23 07:32:58;;;;;;;5.63;0.85;;;9.80;99.90;;;;;;5007127;28;20369;-76
2023/03/23 07:35:25;;;;;;;6.40;1.20;;;9.80;99.90;;;;;;5024534;28;20464;-76
2023/03/23 07:37:52;;;;;;;3.65;1.00;;;9.80;99.90;;;;;;5024145;28;20489;-76
2023/03/23 07:40:18;;;;;;;4.13;2.35;;;9.80;99.90;;;;;;5006186;28;20488;-76
2023/03/23 07:42:49;;;;;;;9.25;1.23;;;9.90;99.90;;;;;;5024232;28;20037;-76
2023/03/23 07:45:15;;;;;;;3.85;0.75;;;9.90;99.90;;;;;;5005234;28;20045;-76
2023/03/23 07:47:41;;;;;;;5.82;0.93;;;9.90;99.90;;;;;;4993600;28;20145;-76
2023/03/23 07:50:08;;;;;;;4.38;0.60;;;9.90;99.90;;;;;;5003937;28;20048;-76
2023/03/23 07:52:36;;;;;;;2.35;0.50;;;9.90;99.90;;;;;;5003981;28;20556;-76
2023/03/23 07:55:04;;;;;;;7.75;1.58;;;9.90;99.90;;;;;;4986597;28;20100;-76
2023/03/23 07:57:32;;;;;;;4.97;1.30;;;10.00;99.90;;;;;;5004320;28;20125;-76
2023/03/23 07:59:57;;;;;;;9.48;1.85;;;10.10;99.90;;;;;;5003254;28;20046;-76
2023/03/23 08:02:24;;;;;;;12.50;1.65;;;10.00;99.90;;;;;;5004064;28;20064;-76
2023/03/23 08:04:50;;;;;;;4.53;1.17;;;10.10;99.90;;;;;;4986457;28;20042;-76
2023/03/23 08:07:17;;;;;;;2.85;1.00;;;10.10;99.90;;;;;;5003950;28;20446;-76
2023/03/23 08:09:43;;;;;;;4.72;0.77;;;10.10;99.90;;;;;;4970711;28;20080;-76
2023/03/23 08:12:08;;;;;;;3.95;0.98;;;10.00;99.90;;;;;;5003778;28;20112;-76
2023/03/23 08:14:34;;;;;;;7.00;1.10;;;10.00;99.90;;;;;;4969895;28;20490;-77
2023/03/23 08:17:00;;;;;;;5.53;1.45;;;9.90;99.90;;;;;;5003929;28;20046;-76
2023/03/23 08:19:26;;;;;;;3.47;0.80;;;9.90;99.90;;;;;;4986395;28;20042;-76
2023/03/23 08:21:52;;;;;;;8.18;1.23;;;10.00;99.90;;;;;;4970631;28;20512;-76
2023/03/23 08:24:18;;;;;;;4.28;1.00;;;10.00;99.90;;;;;;4986061;28;20037;-76
2023/03/23 08:26:44;;;;;;;2.03;0.65;;;10.00;99.90;;;;;;4986190;28;20580;-76
2023/03/23 08:29:10;;;;;;;4.20;0.82;;;10.10;99.90;;;;;;5002582;28;20042;-76
2023/03/23 08:31:37;;;;;;;1.38;1.25;;;10.10;99.90;;;;;;4986246;28;20251;-76
2023/03/23 08:34:07;;;;;;;4.20;1.67;;;10.10;99.90;;;;;;5004074;28;20088;-76
2023/03/23 08:36:34;;;;;;;6.18;0.90;;;10.20;99.90;;;;;;4985880;28;20053;-76
2023/03/23 08:39:00;;;;;;;1.77;1.00;;;10.20;99.90;;;;;;5003678;28;20041;-76
2023/03/23 08:41:26;;;;;;;7.55;1.00;;;10.30;99.90;;;;;;5004325;28;20498;-76
2023/03/23 08:43:52;;;;;;;3.35;0.85;;;10.20;99.90;;;;;;4985777;28;20054;-76
2023/03/23 08:46:19;;;;;;;1.92;0.55;;;10.30;99.90;;;;;;5002368;28;20050;-76
2023/03/23 08:48:45;;;;;;;6.38;0.93;;;10.30;99.90;;;;;;5003832;28;20038;-76
2023/03/23 08:51:11;;;;;;;1.48;0.90;;;10.30;99.90;;;;;;4985665;28;20034;-76
2023/03/23 08:53:37;;;;;;;5.90;1.83;;;10.40;99.90;;;;;;4985908;28;20093;-76
2023/03/23 08:56:08;;;;;;;4.30;1.25;;;10.40;99.90;;;;;;4985561;28;20081;-76
2023/03/23 08:58:35;;;;;;;5.63;0.98;;;10.40;99.90;;;;;;4985908;28;20100;-76
2023/03/23 09:01:01;;;;;;;4.72;1.00;;;10.40;99.90;;;;;;5001993;28;20084;-76
2023/03/23 09:03:27;;;;;;;1.58;0.60;;;10.50;99.90;;;;;;4986187;28;20074;-76
2023/03/23 09:05:53;;;;;;;3.90;0.70;;;10.60;99.90;;;;;;5003795;28;20046;-76
2023/03/23 09:08:19;;;;;;;3.58;1.17;;;10.60;99.90;;;;;;4985716;28;20527;-76
2023/03/23 09:10:45;;;;;;;8.75;1.27;;;10.60;99.90;;;;;;4985993;28;20093;-76
2023/03/23 09:13:11;;;;;;;5.20;0.80;;;10.60;99.90;;;;;;4969500;28;20070;-76
2023/03/23 09:15:36;;;;;;;2.33;0.68;;;10.70;99.90;;;;;;4984671;28;20491;-76
2023/03/23 09:18:03;;;;;;;2.92;0.82;;;10.70;99.90;;;;;;4969400;28;20107;-76
2023/03/23 09:20:29;;;;;;;1.70;0.60;;;10.80;99.90;;;;;;5004042;28;20129;-76
2023/03/23 09:22:57;;;;;;;6.43;1.20;;;10.80;99.90;;;;;;5003647;28;20217;-76
2023/03/23 09:25:26;;;;;;;2.17;0.68;;;10.80;99.90;;;;;;5003250;28;20073;-76
2023/03/23 09:27:58;;;;;;;3.75;0.88;;;10.90;99.90;;;;;;4985235;28;20056;-76
2023/03/23 09:30:29;;;;;;;4.10;0.90;;;10.90;99.90;;;;;;5002769;28;20041;-76
2023/03/23 09:32:55;;;;;;;8.13;1.00;;;10.90;99.90;;;;;;5003814;28;20050;-76
2023/03/23 09:35:23;;;;;;;3.63;1.17;;;11.00;99.90;;;;;;4970592;28;20048;-76
2023/03/23 09:37:51;;;;;;;4.65;0.82;;;11.10;99.90;;;;;;4989047;28;20133;-76
2023/03/23 09:40:25;;;;;;;2.00;0.80;;;11.10;99.90;;;;;;4988973;28;20050;-76
2023/03/23 09:43:27;;;;;;;5.80;1.35;;;11.10;99.90;;;;;;4988884;28;20050;-76
2023/03/23 09:46:37;;;;;;;3.07;0.70;;;11.20;99.90;;;;;;4988331;28;20402;-76
2023/03/23 09:49:26;;;;;;;4.18;1.15;;;11.20;99.90;;;;;;4968268;28;20515;-76
2023/03/23 09:52:10;;;;;;;3.17;0.50;;;11.30;99.90;;;;;;4985878;28;20474;-76
2023/03/23 09:54:38;;;;;;;6.93;0.88;;;11.30;99.90;;;;;;4969843;28;20113;-76
2023/03/23 09:57:14;;;;;;;7.63;1.13;;;11.30;99.90;;;;;;4969194;28;20521;-77
2023/03/23 10:00:09;;;;;;;2.95;1.45;;;11.30;99.90;;;;;;4985759;28;20042;-76
2023/03/23 10:02:54;;;;;;;10.30;2.20;;;11.30;99.90;;;;;;4969223;28;20050;-77
2023/03/23 10:05:30;;;;;;;4.95;0.60;;;11.40;99.90;;;;;;4985508;28;20557;-76
2023/03/23 10:07:56;;;;;;;8.23;1.85;;;11.40;99.90;;;;;;4985782;28;20376;-76
2023/03/23 10:10:32;;;;;;;3.97;1.17;;;11.40;99.90;;;;;;4968817;28;20060;-77
2023/03/23 10:13:22;;;;;;;7.93;1.25;;;11.40;99.90;;;;;;4987174;28;20077;-76
2023/03/23 10:15:49;;;;;;;9.77;1.40;;;11.50;99.90;;;;;;4985905;28;20049;-76
2023/03/23 10:18:31;;;;;;;3.42;0.55;;;11.50;99.90;;;;;;4968122;28;20042;-76
2023/03/23 10:21:01;;;;;;;3.63;0.70;;;11.60;99.90;;;;;;4985635;28;20049;-76
2023/03/23 10:23:59;;;;;;;3.03;0.77;;;11.60;99.90;;;;;;4985825;28;20050;-77
2023/03/23 10:26:46;;;;;;;5.63;0.88;;;11.60;99.90;;;;;;4975851;28;20058;-76
2023/03/23 10:29:27;;;;;;;7.05;1.05;;;11.70;99.90;;;;;;4967620;28;20050;-76
2023/03/23 10:32:01;;;;;;;1.80;1.02;;;11.60;99.90;;;;;;4986705;28;20333;-76
2023/03/23 10:34:40;;;;;;;4.80;0.50;;;11.60;99.90;;;;;;4986533;28;20061;-76
2023/03/23 10:37:24;;;;;;;2.78;1.17;;;11.60;99.90;;;;;;4985943;28;20088;-76
2023/03/23 10:39:56;;;;;;;6.70;0.88;;;11.60;99.90;;;;;;4968663;28;20053;-76
2023/03/23 10:42:31;;;;;;;4.63;1.13;;;11.60;99.90;;;;;;4968521;28;20049;-76
2023/03/23 10:45:17;;;;;;;3.00;1.08;;;11.60;99.90;;;;;;4968273;28;20224;-76
2023/03/23 10:47:49;;;;;;;3.50;0.82;;;11.50;99.90;;;;;;4980104;28;20494;-76
2023/03/23 10:50:21;;;;;;;5.03;0.63;;;11.40;99.90;;;;;;4987514;28;20050;-76
2023/03/23 10:52:50;;;;;;;5.32;0.70;;;11.40;99.90;;;;;;4988042;28;20117;-76
2023/03/23 10:55:18;;;;;;;4.60;0.80;;;11.40;99.90;;;;;;4987845;28;20060;-76
2023/03/23 10:57:47;;;;;;;4.45;1.13;;;11.40;99.90;;;;;;5005455;28;20104;-77
2023/03/23 11:00:26;;;;;;;2.00;0.77;;;11.50;99.90;;;;;;4986228;28;20042;-76
2023/03/23 11:03:03;;;;;;;2.55;0.65;;;11.70;99.90;;;;;;5005395;28;20506;-77
2023/03/23 11:05:50;;;;;;;4.03;0.73;;;11.80;99.90;;;;;;4988266;28;20383;-77
2023/03/23 11:08:25;;;;;;;1.67;0.65;;;11.90;99.90;;;;;;4971008;28;20049;-77
2023/03/23 11:11:18;;;;;;;1.45;0.40;;;11.90;99.90;;;;;;4987560;28;20097;-77
2023/03/23 11:13:46;;;;;;;4.65;0.50;;;11.90;99.90;;;;;;5003594;28;20104;-77
2023/03/23 11:16:33;;;;;;;3.00;0.60;;;11.90;99.90;;;;;;4970950;28;20145;-77
2023/03/23 11:19:01;;;;;;;2.78;0.77;;;11.90;99.90;;;;;;4987998;28;20092;-77
2023/03/23 11:21:27;;;;;;;4.05;0.77;;;12.00;99.90;;;;;;5005514;28;20050;-77
2023/03/23 11:23:57;;;;;;;2.40;0.75;;;12.00;99.90;;;;;;4987215;28;20145;-77
2023/03/23 11:26:27;;;;;;;10.68;0.93;;;12.10;99.90;;;;;;5004521;28;20487;-76
2023/03/23 11:28:59;;;;;;;4.68;0.68;;;12.10;99.90;;;;;;4986153;28;20041;-77
2023/03/23 11:31:52;;;;;;;2.97;0.63;;;12.10;99.90;;;;;;5005166;28;20045;-76
2023/03/23 11:34:29;;;;;;;6.93;1.30;;;12.00;99.90;;;;;;4986651;28;20049;-77
2023/03/23 11:37:01;;;;;;;2.28;0.70;;;12.00;99.90;;;;;;5005196;28;20115;-76
2023/03/23 11:39:33;;;;;;;2.92;0.60;;;12.10;99.90;;;;;;5004923;28;20046;-77
2023/03/23 11:42:00;;;;;;;2.30;0.70;;;12.20;99.90;;;;;;4987510;28;20056;-77
2023/03/23 11:44:46;;;;;;;10.65;1.35;;;12.20;99.90;;;;;;4970381;28;20088;-77
2023/03/23 11:47:40;;;;;;;3.10;0.40;;;12.20;99.90;;;;;;4986391;28;20132;-77
2023/03/23 11:50:31;;;;;;;4.00;0.57;;;12.20;99.90;;;;;;4986376;28;20049;-77
2023/03/23 11:53:10;;;;;;;1.27;0.45;;;12.30;99.90;;;;;;4987606;28;20538;-76
2023/03/23 11:55:55;;;;;;;3.10;0.60;;;12.30;99.90;;;;;;4970564;28;20137;-76
2023/03/23 11:58:21;;;;;;;4.93;0.75;;;12.30;99.90;;;;;;5003496;28;20056;-76
2023/03/23 12:00:58;;;;;;;2.17;0.47;;;12.30;99.90;;;;;;5004118;28;20081;-77
2023/03/23 12:03:40;;;;;;;2.20;0.75;;;12.40;99.90;;;;;;4970615;28;20343;-76
2023/03/23 12:06:10;;;;;;;1.97;0.77;;;12.40;99.90;;;;;;5004147;28;20096;-77
2023/03/23 12:08:50;;;;;;;1.95;0.50;;;12.40;99.90;;;;;;4986514;28;20296;-77
2023/03/23 12:11:44;;;;;;;5.35;0.88;;;12.50;99.90;;;;;;4986297;28;20061;-76
2023/03/23 12:14:41;;;;;;;3.30;0.73;;;12.50;99.90;;;;;;5003071;28;20092;-76
2023/03/23 12:17:33;;;;;;;11.98;0.82;;;12.50;99.90;;;;;;5010023;28;20046;-77
2023/03/23 12:20:21;;;;;;;1.35;0.75;;;12.60;99.90;;;;;;4985154;28;20114;-77
2023/03/23 12:22:59;;;;;;;1.50;0.47;;;12.60;99.90;;;;;;4985907;28;20105;-77
2023/03/23 12:25:30;;;;;;;3.80;0.75;;;12.60;99.90;;;;;;4990896;28;20054;-75
2023/03/23 12:28:11;;;;;;;2.15;0.65;;;12.50;99.90;;;;;;4987043;28;20038;-75
2023/03/23 12:30:41;;;;;;;4.88;1.05;;;12.50;99.90;;;;;;5022552;28;20129;-75
2023/03/23 12:33:21;;;;;;;2.38;0.55;;;12.50;99.90;;;;;;4986792;28;20056;-75
2023/03/23 12:35:58;;;;;;;2.97;0.52;;;12.40;99.90;;;;;;5003706;28;20038;-75
2023/03/23 12:38:34;;;;;;;0.60;0.32;;;12.50;99.90;;;;;;4986659;28;20083;-75
2023/03/23 12:41:16;;;;;;;3.38;0.50;;;12.50;99.90;;;;;;5003879;28;20461;-76
2023/03/23 12:44:03;;;;;;;7.38;0.80;;;12.60;99.90;;;;;;5003354;28;20085;-75
2023/03/23 12:47:06;;;;;;;2.92;1.02;;;12.70;99.90;;;;;;4987042;28;20092;-75
2023/03/23 12:49:37;;;;;;;5.20;1.08;;;12.80;99.90;;;;;;5002726;28;20057;-76
2023/03/23 12:52:40;;;;;;;5.80;1.08;;;12.80;99.90;;;;;;5004862;28;20033;-76
2023/03/23 12:55:07;;;;;;;6.68;0.63;;;12.80;99.90;;;;;;4954084;28;20076;-76
2023/03/23 12:57:58;;;;;;;0.80;0.75;;;12.70;99.90;;;;;;5016371;28;20530;-76
2023/03/23 13:00:29;;;;;;;2.67;0.70;;;12.70;99.90;;;;;;4984091;28;20077;-75
2023/03/23 13:03:17;;;;;;;4.65;0.55;;;12.70;99.90;;;;;;5004484;28;20048;-75
2023/03/23 13:05:55;;;;;;;2.67;0.50;;;12.70;99.90;;;;;;5005780;28;20323;-75
2023/03/23 13:08:35;;;;;;;4.53;0.88;;;12.70;99.90;;;;;;4994739;28;20462;-76